Time;durP1;ratioP1;P1;durP2;ratioP2;P2;SDS_P1;SDS_P2;PMS_P1;PMS_P2;Temp;Humidity;BMP_temperature;BMP_pressure;BME280_temperature;BME280_humidity;BME280_pressure;Samples;Min_cycle;Max_cycle;Signal;HPM_P1;HPM_P2
2021/01/30 00:02:00;;;;;;;233.02;213.52;;;;;;;;;;5001084;28;20432;-77
2021/01/30 00:04:26;;;;;;;232.65;214.05;;;;;;;;;;5000638;28;20034;-77
2021/01/30 00:06:51;;;;;;;226.50;208.30;;;;;;;;;;4999819;28;20026;-78
2021/01/30 00:09:18;;;;;;;227.60;209.80;;;;;;;;;;5001380;28;20038;-78
2021/01/30 00:11:53;;;;;;;226.63;208.80;;;;;;;;;;4997797;28;20077;-79
2021/01/30 00:14:24;;;;;;;228.55;211.27;;;;;;;;;;4998977;28;20049;-77
2021/01/30 00:16:50;;;;;;;225.73;208.48;;;;;;;;;;5000422;28;20051;-78
2021/01/30 00:19:15;;;;;;;218.90;202.32;;;;;;;;;;5001796;28;20102;-78
2021/01/30 00:21:41;;;;;;;220.55;203.95;;;;;;;;;;5000327;28;20125;-77
2021/01/30 00:24:07;;;;;;;220.93;204.20;;;;;;;;;;5003039;28;20109;-78
2021/01/30 00:26:32;;;;;;;225.15;208.18;;;;;;;;;;5000474;28;20506;-77
2021/01/30 00:28:58;;;;;;;233.80;216.25;;;;;;;;;;5005012;28;20584;-77
2021/01/30 00:31:23;;;;;;;235.57;217.48;;;;;;;;;;4999719;28;20112;-77
2021/01/30 00:33:49;;;;;;;235.80;217.27;;;;;;;;;;5002270;28;20076;-76
2021/01/30 00:36:14;;;;;;;256.30;236.93;;;;;;;;;;4998237;28;20397;-77
2021/01/30 00:38:40;;;;;;;259.17;239.27;;;;;;;;;;4999962;28;20022;-77
2021/01/30 00:41:05;;;;;;;267.10;245.90;;;;;;;;;;5005453;28;20042;-78
2021/01/30 00:43:30;;;;;;;265.30;244.52;;;;;;;;;;4999693;28;20033;-77
2021/01/30 00:45:56;;;;;;;265.40;244.52;;;;;;;;;;5003169;28;20042;-77
2021/01/30 00:48:21;;;;;;;272.15;250.48;;;;;;;;;;5001075;28;20319;-77
2021/01/30 00:50:47;;;;;;;264.20;242.63;;;;;;;;;;5002349;28;20621;-77
2021/01/30 00:53:13;;;;;;;278.83;256.35;;;;;;;;;;5000607;28;20023;-77
2021/01/30 00:55:43;;;;;;;273.42;252.10;;;;;;;;;;5013644;28;20041;-77
2021/01/30 00:58:09;;;;;;;281.58;259.60;;;;;;;;;;5007047;28;20505;-77
2021/01/30 01:00:35;;;;;;;276.70;254.48;;;;;;;;;;5005717;28;20100;-78
2021/01/30 01:03:04;;;;;;;281.17;258.35;;;;;;;;;;5014379;28;20125;-77
2021/01/30 01:05:44;;;;;;;272.40;250.80;;;;;;;;;;5006507;28;20489;-78
2021/01/30 01:08:10;;;;;;;304.00;281.38;;;;;;;;;;5000869;28;20030;-77
2021/01/30 01:10:35;;;;;;;267.48;246.50;;;;;;;;;;5003183;28;20087;-77
2021/01/30 01:13:01;;;;;;;257.92;238.13;;;;;;;;;;4999230;28;20122;-77
2021/01/30 01:15:26;;;;;;;268.50;246.43;;;;;;;;;;4997071;28;20466;-78
2021/01/30 01:17:51;;;;;;;261.38;240.27;;;;;;;;;;5000821;28;20368;-77
2021/01/30 01:20:19;;;;;;;268.27;246.57;;;;;;;;;;5003465;28;20029;-77
2021/01/30 01:22:45;;;;;;;283.70;262.20;;;;;;;;;;5000609;28;20517;-78
2021/01/30 01:25:11;;;;;;;249.48;229.77;;;;;;;;;;5000123;28;20026;-77
2021/01/30 01:27:37;;;;;;;279.80;258.58;;;;;;;;;;4997745;28;20030;-77
2021/01/30 01:30:04;;;;;;;261.85;241.70;;;;;;;;;;5005494;28;20030;-77
2021/01/30 01:32:29;;;;;;;251.32;231.90;;;;;;;;;;5004520;28;20025;-77
2021/01/30 01:34:54;;;;;;;244.77;225.57;;;;;;;;;;5004945;28;20569;-76
2021/01/30 01:37:20;;;;;;;263.67;243.40;;;;;;;;;;4995854;28;20465;-76
2021/01/30 01:39:46;;;;;;;265.90;245.90;;;;;;;;;;4996901;28;20025;-76
2021/01/30 01:42:12;;;;;;;259.60;238.88;;;;;;;;;;4996608;28;20026;-77
2021/01/30 01:44:38;;;;;;;272.65;250.85;;;;;;;;;;4998228;28;20054;-77
2021/01/30 01:47:05;;;;;;;265.95;244.95;;;;;;;;;;5002547;28;20486;-76
2021/01/30 01:49:33;;;;;;;268.45;247.05;;;;;;;;;;5008118;28;20025;-77
2021/01/30 01:52:01;;;;;;;278.77;256.95;;;;;;;;;;4994704;28;20041;-77
2021/01/30 01:54:27;;;;;;;268.90;247.23;;;;;;;;;;4994226;28;20025;-77
2021/01/30 01:56:54;;;;;;;272.63;250.98;;;;;;;;;;4996795;28;20033;-78
2021/01/30 01:59:20;;;;;;;270.50;249.10;;;;;;;;;;5001609;28;20358;-78
2021/01/30 02:01:46;;;;;;;274.40;252.07;;;;;;;;;;4991099;28;20038;-78
2021/01/30 02:04:13;;;;;;;283.98;260.63;;;;;;;;;;5000315;28;20387;-77
2021/01/30 02:06:41;;;;;;;278.02;254.93;;;;;;;;;;4992369;28;20073;-78
2021/01/30 02:09:08;;;;;;;278.25;255.77;;;;;;;;;;4994684;28;20126;-78
2021/01/30 02:11:34;;;;;;;281.45;258.83;;;;;;;;;;4994007;28;20058;-78
2021/01/30 02:14:00;;;;;;;269.83;247.65;;;;;;;;;;4998192;28;20018;-78
2021/01/30 02:16:32;;;;;;;294.38;270.60;;;;;;;;;;4996297;28;20062;-78
2021/01/30 02:19:13;;;;;;;278.48;256.08;;;;;;;;;;5001478;28;20030;-78
2021/01/30 02:21:38;;;;;;;268.63;247.65;;;;;;;;;;5000840;28;20532;-78
2021/01/30 02:24:22;;;;;;;274.88;253.63;;;;;;;;;;4996837;28;20018;-78
2021/01/30 02:26:50;;;;;;;275.85;254.32;;;;;;;;;;4998056;28;20030;-76
2021/01/30 02:29:35;;;;;;;272.08;250.38;;;;;;;;;;4996356;28;20057;-77
2021/01/30 02:32:06;;;;;;;275.38;253.68;;;;;;;;;;4994785;28;20620;-77
2021/01/30 02:34:55;;;;;;;269.90;248.23;;;;;;;;;;5004232;28;20140;-77
2021/01/30 02:37:25;;;;;;;274.35;252.23;;;;;;;;;;4991009;28;20044;-77
2021/01/30 02:40:20;;;;;;;267.02;246.10;;;;;;;;;;5000193;28;20080;-77
2021/01/30 02:43:06;;;;;;;267.75;246.27;;;;;;;;;;5005514;28;20035;-77
2021/01/30 02:45:35;;;;;;;279.83;257.92;;;;;;;;;;5006835;28;20030;-77
2021/01/30 02:48:03;;;;;;;265.27;244.20;;;;;;;;;;5004505;28;20570;-77
2021/01/30 02:50:31;;;;;;;319.85;297.05;;;;;;;;;;4995424;28;20042;-78
2021/01/30 02:52:58;;;;;;;265.20;244.85;;;;;;;;;;5001803;28;20035;-78
2021/01/30 02:55:24;;;;;;;289.65;267.50;;;;;;;;;;5000271;28;20435;-78
2021/01/30 02:57:51;;;;;;;279.40;257.30;;;;;;;;;;5002074;28;20385;-78
2021/01/30 03:00:18;;;;;;;285.15;262.50;;;;;;;;;;5000211;28;20054;-78
2021/01/30 03:02:44;;;;;;;275.17;253.80;;;;;;;;;;4998680;28;20030;-78
2021/01/30 03:05:10;;;;;;;272.80;251.23;;;;;;;;;;5006986;28;20122;-78
2021/01/30 03:08:15;;;;;;;276.45;254.18;;;;;;;;;;4997853;28;20026;-78
2021/01/30 03:10:47;;;;;;;281.38;259.83;;;;;;;;;;5015812;28;20042;-78
2021/01/30 03:13:15;;;;;;;271.15;249.95;;;;;;;;;;5018760;28;20029;-78
2021/01/30 03:16:01;;;;;;;272.23;251.27;;;;;;;;;;5006048;28;20441;-78
2021/01/30 03:18:30;;;;;;;274.48;252.45;;;;;;;;;;5005770;28;20049;-78
2021/01/30 03:20:55;;;;;;;269.92;248.68;;;;;;;;;;4993802;28;20034;-78
2021/01/30 03:23:21;;;;;;;264.40;243.18;;;;;;;;;;5001773;28;20037;-78
2021/01/30 03:25:47;;;;;;;269.83;249.02;;;;;;;;;;5000648;28;20022;-78
2021/01/30 03:28:13;;;;;;;286.13;265.00;;;;;;;;;;5004359;28;20026;-78
2021/01/30 03:30:39;;;;;;;266.90;246.85;;;;;;;;;;4996716;28;20045;-78
2021/01/30 03:33:05;;;;;;;262.92;242.93;;;;;;;;;;5009457;28;20030;-77
2021/01/30 03:35:31;;;;;;;268.17;247.70;;;;;;;;;;5015484;28;20117;-77
2021/01/30 03:37:56;;;;;;;268.17;247.75;;;;;;;;;;5015172;28;20029;-77
2021/01/30 03:40:22;;;;;;;270.73;250.10;;;;;;;;;;5016808;28;20014;-77
2021/01/30 03:42:48;;;;;;;264.92;244.68;;;;;;;;;;5018778;28;20478;-77
2021/01/30 03:45:14;;;;;;;261.27;241.48;;;;;;;;;;5016423;28;20191;-78
2021/01/30 03:47:40;;;;;;;265.02;245.02;;;;;;;;;;5014534;28;20051;-78
2021/01/30 03:50:07;;;;;;;272.42;251.70;;;;;;;;;;5013609;28;20042;-77
2021/01/30 03:52:33;;;;;;;263.65;244.15;;;;;;;;;;5017391;28;20069;-77
2021/01/30 03:54:58;;;;;;;254.00;235.30;;;;;;;;;;5014136;28;20023;-77
2021/01/30 03:57:23;;;;;;;266.60;246.68;;;;;;;;;;5011780;28;20628;-78
2021/01/30 03:59:49;;;;;;;254.95;235.70;;;;;;;;;;4996203;28;20050;-78
2021/01/30 04:02:15;;;;;;;252.10;233.38;;;;;;;;;;5007981;28;20374;-78
2021/01/30 04:04:42;;;;;;;252.27;233.43;;;;;;;;;;4997857;28;20093;-77
2021/01/30 04:07:08;;;;;;;257.23;237.90;;;;;;;;;;4996456;28;20077;-78
2021/01/30 04:09:33;;;;;;;266.98;247.45;;;;;;;;;;4995631;28;20441;-78
2021/01/30 04:11:58;;;;;;;251.27;232.77;;;;;;;;;;5001567;28;20057;-78
2021/01/30 04:14:24;;;;;;;252.43;233.75;;;;;;;;;;5007805;28;20469;-78
2021/01/30 04:16:49;;;;;;;254.63;236.05;;;;;;;;;;4997290;28;20030;-78
2021/01/30 04:19:16;;;;;;;250.45;231.95;;;;;;;;;;4996383;28;20022;-78
2021/01/30 04:21:41;;;;;;;252.75;234.48;;;;;;;;;;4992339;28;20109;-77
2021/01/30 04:24:07;;;;;;;248.90;230.55;;;;;;;;;;4992958;28;20466;-77
2021/01/30 04:26:33;;;;;;;255.80;237.10;;;;;;;;;;4997797;28;20034;-77
2021/01/30 04:28:58;;;;;;;245.90;227.88;;;;;;;;;;4996793;28;20049;-78
2021/01/30 04:31:24;;;;;;;246.38;228.07;;;;;;;;;;5007097;28;20062;-78
2021/01/30 04:33:49;;;;;;;248.88;230.60;;;;;;;;;;5009526;28;20026;-78
2021/01/30 04:36:15;;;;;;;248.07;229.45;;;;;;;;;;4998694;28;20042;-78
2021/01/30 04:38:41;;;;;;;248.35;229.80;;;;;;;;;;4992559;28;20014;-77
2021/01/30 04:41:32;;;;;;;271.23;251.65;;;;;;;;;;4991945;28;20117;-78
2021/01/30 04:44:01;;;;;;;253.07;234.48;;;;;;;;;;5005901;28;20065;-78
2021/01/30 04:46:39;;;;;;;261.13;241.90;;;;;;;;;;4991736;28;20034;-78
2021/01/30 04:49:10;;;;;;;253.10;234.25;;;;;;;;;;4992290;28;20129;-78
2021/01/30 04:51:42;;;;;;;257.50;238.65;;;;;;;;;;4991575;28;20126;-78
2021/01/30 04:54:07;;;;;;;262.25;243.00;;;;;;;;;;4992624;28;20027;-78
2021/01/30 04:56:39;;;;;;;263.25;244.52;;;;;;;;;;4997359;28;20092;-77
2021/01/30 04:59:23;;;;;;;262.50;243.43;;;;;;;;;;5002567;28;20590;-77
2021/01/30 05:01:52;;;;;;;267.48;247.88;;;;;;;;;;5006170;28;20053;-77
2021/01/30 05:04:23;;;;;;;264.75;244.95;;;;;;;;;;4997737;28;20034;-77
2021/01/30 05:06:57;;;;;;;274.45;253.77;;;;;;;;;;4996774;28;20047;-77
2021/01/30 05:09:23;;;;;;;1129.72;619.53;;;;;;;;;;5001910;28;20037;-78
2021/01/30 05:11:55;;;;;;;699.88;434.65;;;;;;;;;;5002469;28;20505;-78
2021/01/30 05:14:22;;;;;;;260.33;240.18;;;;;;;;;;5003688;28;20034;-78
2021/01/30 05:16:58;;;;;;;265.55;245.18;;;;;;;;;;4998660;28;20378;-78
2021/01/30 05:19:24;;;;;;;275.60;253.98;;;;;;;;;;5002231;28;20501;-78
2021/01/30 05:21:57;;;;;;;264.35;243.50;;;;;;;;;;5010438;28;20675;-78
2021/01/30 05:24:24;;;;;;;266.75;245.35;;;;;;;;;;5010798;28;20579;-78
2021/01/30 05:26:56;;;;;;;267.15;245.55;;;;;;;;;;4999245;28;20049;-78
2021/01/30 05:29:21;;;;;;;695.70;429.55;;;;;;;;;;5010888;28;20580;-78
2021/01/30 05:31:58;;;;;;;1999.90;999.90;;;;;;;;;;5011662;28;20026;-78
2021/01/30 05:34:30;;;;;;;1999.90;999.90;;;;;;;;;;5001904;28;20034;-78
2021/01/30 05:37:00;;;;;;;1999.90;999.90;;;;;;;;;;5008039;28;20194;-78
2021/01/30 05:39:32;;;;;;;272.13;250.68;;;;;;;;;;4999061;28;20026;-78
2021/01/30 05:42:08;;;;;;;1999.90;999.90;;;;;;;;;;5005873;28;20374;-78
2021/01/30 05:44:40;;;;;;;1999.90;999.90;;;;;;;;;;5002935;28;20026;-78
2021/01/30 05:47:07;;;;;;;714.53;448.52;;;;;;;;;;5013202;28;20022;-78
2021/01/30 05:49:37;;;;;;;708.92;443.08;;;;;;;;;;5012567;28;20482;-78
2021/01/30 05:52:11;;;;;;;1999.90;999.90;;;;;;;;;;5025025;28;20082;-78
2021/01/30 05:54:37;;;;;;;701.83;435.88;;;;;;;;;;5032935;28;20037;-78
2021/01/30 05:57:02;;;;;;;1133.30;622.80;;;;;;;;;;5047199;28;20049;-78
2021/01/30 05:59:29;;;;;;;1999.90;999.90;;;;;;;;;;5034595;28;20022;-77
2021/01/30 06:02:12;;;;;;;1999.90;999.90;;;;;;;;;;5028370;28;20033;-77
2021/01/30 06:04:38;;;;;;;1999.90;999.90;;;;;;;;;;5031065;28;20034;-78
2021/01/30 06:07:04;;;;;;;1999.90;999.90;;;;;;;;;;5010455;28;20022;-78
2021/01/30 06:09:30;;;;;;;275.35;254.27;;;;;;;;;;5009864;28;20038;-78
2021/01/30 06:11:55;;;;;;;1999.90;999.90;;;;;;;;;;5003292;28;20033;-77
2021/01/30 06:14:35;;;;;;;1999.90;999.90;;;;;;;;;;5003082;28;20038;-78
2021/01/30 06:17:00;;;;;;;1999.90;999.90;;;;;;;;;;4995518;28;20034;-78
2021/01/30 06:19:30;;;;;;;1564.70;809.53;;;;;;;;;;5006603;28;20025;-79
2021/01/30 06:22:14;;;;;;;1999.90;999.90;;;;;;;;;;5006546;28;20034;-78
2021/01/30 06:24:46;;;;;;;690.05;424.30;;;;;;;;;;4996765;28;20039;-78
2021/01/30 06:27:26;;;;;;;267.70;246.07;;;;;;;;;;4998479;28;20030;-78
2021/01/30 06:29:53;;;;;;;699.40;432.80;;;;;;;;;;4999692;28;20034;-78
2021/01/30 06:32:18;;;;;;;255.05;234.07;;;;;;;;;;5000093;28;20017;-78
2021/01/30 06:34:45;;;;;;;263.38;241.70;;;;;;;;;;5004030;28;20080;-78
2021/01/30 06:37:14;;;;;;;266.40;244.50;;;;;;;;;;4999219;28;20092;-78
2021/01/30 06:39:41;;;;;;;269.58;247.27;;;;;;;;;;5001504;28;20033;-78
2021/01/30 06:42:11;;;;;;;273.73;251.13;;;;;;;;;;4996649;28;20030;-78
2021/01/30 06:44:37;;;;;;;275.58;252.80;;;;;;;;;;4997760;28;20574;-78
2021/01/30 06:47:06;;;;;;;276.80;253.70;;;;;;;;;;4993725;28;20019;-78
2021/01/30 06:49:33;;;;;;;276.90;253.70;;;;;;;;;;5000536;28;20083;-78
2021/01/30 06:52:10;;;;;;;270.95;248.25;;;;;;;;;;4996919;28;20022;-78
2021/01/30 06:54:36;;;;;;;268.13;245.50;;;;;;;;;;4993833;28;20034;-78
2021/01/30 06:57:04;;;;;;;272.02;249.15;;;;;;;;;;4997730;28;20488;-78
2021/01/30 06:59:32;;;;;;;274.35;251.30;;;;;;;;;;5007835;28;20042;-78
2021/01/30 07:01:59;;;;;;;279.95;256.33;;;;;;;;;;5005291;28;20045;-78
2021/01/30 07:04:27;;;;;;;275.67;252.50;;;;;;;;;;5006359;28;20030;-78
2021/01/30 07:07:22;;;;;;;269.95;247.30;;;;;;;;;;5002326;28;20030;-78
2021/01/30 07:10:08;;;;;;;260.55;238.75;;;;;;;;;;4998070;28;20056;-78
2021/01/30 07:12:46;;;;;;;255.15;233.73;;;;;;;;;;5000715;28;20092;-78
2021/01/30 07:15:23;;;;;;;258.45;236.95;;;;;;;;;;5003055;28;20037;-77
2021/01/30 07:17:57;;;;;;;264.55;242.80;;;;;;;;;;5002397;28;20041;-78
2021/01/30 07:20:44;;;;;;;286.15;262.85;;;;;;;;;;5005952;28;20022;-80
2021/01/30 07:23:21;;;;;;;260.42;239.13;;;;;;;;;;5005412;28;20038;-81
2021/01/30 07:26:05;;;;;;;252.25;231.63;;;;;;;;;;5000040;28;20041;-79
2021/01/30 07:28:35;;;;;;;248.95;228.50;;;;;;;;;;4997779;28;20030;-79
2021/01/30 07:31:04;;;;;;;251.82;231.32;;;;;;;;;;4997345;28;20117;-78
2021/01/30 07:33:33;;;;;;;241.60;221.98;;;;;;;;;;4996952;28;20033;-79
2021/01/30 07:36:02;;;;;;;227.82;210.13;;;;;;;;;;5002028;28;20038;-79
2021/01/30 07:38:32;;;;;;;237.93;218.90;;;;;;;;;;5003500;28;20049;-78
2021/01/30 07:41:08;;;;;;;230.43;212.48;;;;;;;;;;5002739;28;20080;-83
2021/01/30 07:43:50;;;;;;;227.32;209.50;;;;;;;;;;5014397;28;20040;-82
2021/01/30 07:46:18;;;;;;;223.73;206.65;;;;;;;;;;4999471;28;20487;-84
2021/01/30 07:48:50;;;;;;;225.85;209.13;;;;;;;;;;5004891;28;20026;-84
2021/01/30 07:51:17;;;;;;;229.52;212.07;;;;;;;;;;5005093;28;20124;-84
2021/01/30 07:53:43;;;;;;;218.15;201.85;;;;;;;;;;5016260;28;20030;-85
2021/01/30 07:56:14;;;;;;;208.07;192.88;;;;;;;;;;5007598;28;20121;-84
2021/01/30 07:58:58;;;;;;;196.23;181.52;;;;;;;;;;5004336;28;20586;-84
2021/01/30 08:01:30;;;;;;;183.50;169.80;;;;;;;;;;5004745;28;20117;-83
2021/01/30 08:04:05;;;;;;;172.63;159.73;;;;;;;;;;5008101;28;20044;-77
2021/01/30 08:06:30;;;;;;;170.05;157.68;;;;;;;;;;5013203;28;20029;-76
2021/01/30 08:09:08;;;;;;;166.95;155.25;;;;;;;;;;5007045;28;20041;-75
2021/01/30 08:11:46;;;;;;;169.27;157.68;;;;;;;;;;5010420;28;20064;-77
2021/01/30 08:14:19;;;;;;;183.27;169.13;;;;;;;;;;5011277;28;20029;-78
2021/01/30 08:17:01;;;;;;;154.57;143.98;;;;;;;;;;5009096;28;20048;-77
2021/01/30 08:19:36;;;;;;;159.25;148.23;;;;;;;;;;5003416;28;20104;-77
2021/01/30 08:22:06;;;;;;;182.20;169.80;;;;;;;;;;5004528;28;20026;-78
2021/01/30 08:24:37;;;;;;;186.73;173.77;;;;;;;;;;5001725;28;20121;-78
2021/01/30 08:27:09;;;;;;;164.07;152.77;;;;;;;;;;5006338;28;20026;-76
2021/01/30 08:29:46;;;;;;;166.73;155.32;;;;;;;;;;5005106;28;20437;-77
2021/01/30 08:32:24;;;;;;;159.82;148.38;;;;;;;;;;5002905;28;20038;-78
2021/01/30 08:34:57;;;;;;;146.98;136.80;;;;;;;;;;5005741;28;20022;-76
2021/01/30 08:37:25;;;;;;;147.63;137.63;;;;;;;;;;5007101;28;20034;-78
2021/01/30 08:40:13;;;;;;;151.45;141.13;;;;;;;;;;5005987;28;20428;-79
2021/01/30 08:43:14;;;;;;;146.52;136.55;;;;;;;;;;5002397;28;20045;-78
2021/01/30 08:45:39;;;;;;;147.05;136.70;;;;;;;;;;4972715;28;20047;-78
2021/01/30 08:48:16;;;;;;;147.70;137.52;;;;;;;;;;4993781;28;20030;-80
2021/01/30 08:50:46;;;;;;;158.48;147.25;;;;;;;;;;4991595;28;20089;-79
2021/01/30 08:53:24;;;;;;;157.35;146.18;;;;;;;;;;5012974;28;20125;-78
2021/01/30 08:55:52;;;;;;;164.73;152.82;;;;;;;;;;5000993;28;20038;-78
2021/01/30 08:58:32;;;;;;;163.95;152.13;;;;;;;;;;4998410;28;20446;-78
2021/01/30 09:01:17;;;;;;;154.20;142.93;;;;;;;;;;5018428;28;20041;-78
2021/01/30 09:03:49;;;;;;;137.52;128.00;;;;;;;;;;5009104;28;20091;-79
2021/01/30 09:06:44;;;;;;;147.32;136.95;;;;;;;;;;5006333;28;20039;-79
2021/01/30 09:09:11;;;;;;;140.80;130.98;;;;;;;;;;4998876;28;20132;-82
2021/01/30 09:11:46;;;;;;;132.27;123.13;;;;;;;;;;5003985;28;20434;-83
2021/01/30 09:14:15;;;;;;;148.13;137.05;;;;;;;;;;5004218;28;20045;-81
2021/01/30 09:16:46;;;;;;;166.40;154.68;;;;;;;;;;4997086;28;20143;-82
2021/01/30 09:19:16;;;;;;;145.38;135.38;;;;;;;;;;5003985;28;20092;-82
2021/01/30 09:21:52;;;;;;;133.98;124.80;;;;;;;;;;4994952;28;20552;-81
2021/01/30 09:24:29;;;;;;;115.78;108.03;;;;;;;;;;4997963;28;20027;-81
2021/01/30 09:27:05;;;;;;;133.93;124.68;;;;;;;;;;5018497;28;20033;-81
2021/01/30 09:29:36;;;;;;;127.20;118.55;;;;;;;;;;5009954;28;20485;-82
2021/01/30 09:32:01;;;;;;;126.82;118.03;;;;;;;;;;5005996;28;20033;-82
2021/01/30 09:34:28;;;;;;;127.65;119.05;;;;;;;;;;5027377;28;20397;-80
2021/01/30 09:36:54;;;;;;;127.45;118.45;;;;;;;;;;5008462;28;20029;-81
2021/01/30 09:39:21;;;;;;;126.60;117.93;;;;;;;;;;5005685;28;20433;-80
2021/01/30 09:41:47;;;;;;;117.22;109.10;;;;;;;;;;5008563;28;20125;-80
2021/01/30 09:44:25;;;;;;;115.53;107.13;;;;;;;;;;5004934;28;20537;-77
2021/01/30 09:46:56;;;;;;;104.28;97.22;;;;;;;;;;5001936;28;20116;-77
2021/01/30 09:49:24;;;;;;;107.00;99.70;;;;;;;;;;5001884;28;20050;-77
2021/01/30 09:51:50;;;;;;;117.03;109.10;;;;;;;;;;5004023;28;20086;-77
2021/01/30 09:54:17;;;;;;;121.85;113.53;;;;;;;;;;5004693;28;20032;-82
2021/01/30 09:56:43;;;;;;;117.25;109.30;;;;;;;;;;4999177;28;20022;-76
2021/01/30 09:59:11;;;;;;;102.95;95.82;;;;;;;;;;5005007;28;20057;-77
2021/01/30 10:01:41;;;;;;;99.07;92.22;;;;;;;;;;4999395;28;20152;-79
2021/01/30 10:04:35;;;;;;;102.63;95.32;;;;;;;;;;4997672;28;20116;-79
2021/01/30 10:07:12;;;;;;;127.00;118.10;;;;;;;;;;5003032;28;20486;-78
2021/01/30 10:09:41;;;;;;;119.28;111.13;;;;;;;;;;4997788;28;20125;-77
2021/01/30 10:12:07;;;;;;;123.38;114.68;;;;;;;;;;4999701;28;20045;-70
2021/01/30 10:14:34;;;;;;;129.63;120.63;;;;;;;;;;4999466;28;20736;-71
2021/01/30 10:17:01;;;;;;;129.75;120.88;;;;;;;;;;5005202;28;20029;-75
2021/01/30 10:19:31;;;;;;;126.80;118.18;;;;;;;;;;5006220;28;20072;-79
2021/01/30 10:21:57;;;;;;;132.65;123.57;;;;;;;;;;5009524;28;20033;-83
2021/01/30 10:24:28;;;;;;;122.97;114.57;;;;;;;;;;5000890;28;20117;-82
2021/01/30 10:26:55;;;;;;;128.68;120.00;;;;;;;;;;4995586;28;20026;-82
2021/01/30 10:29:24;;;;;;;146.73;136.77;;;;;;;;;;4999338;28;20461;-81
2021/01/30 10:32:13;;;;;;;157.05;146.27;;;;;;;;;;5000680;28;20026;-81
2021/01/30 10:34:41;;;;;;;177.90;165.80;;;;;;;;;;5003468;28;20026;-81
2021/01/30 10:37:25;;;;;;;190.90;177.55;;;;;;;;;;5003637;28;20072;-81
2021/01/30 10:39:53;;;;;;;183.82;171.50;;;;;;;;;;4998729;28;20516;-80
2021/01/30 10:42:21;;;;;;;204.55;190.55;;;;;;;;;;5000109;28;20541;-80
2021/01/30 10:44:48;;;;;;;200.23;186.40;;;;;;;;;;5002560;28;20030;-80
2021/01/30 10:47:14;;;;;;;198.05;183.88;;;;;;;;;;5002725;28;20026;-80
2021/01/30 10:49:40;;;;;;;203.38;188.52;;;;;;;;;;5005229;28;20037;-81
2021/01/30 10:52:10;;;;;;;197.68;183.32;;;;;;;;;;5003285;28;20042;-81
2021/01/30 10:54:36;;;;;;;202.77;188.10;;;;;;;;;;5000295;28;20055;-86
2021/01/30 10:57:05;;;;;;;205.23;190.35;;;;;;;;;;5005840;28;20489;-81
2021/01/30 10:59:39;;;;;;;196.07;181.98;;;;;;;;;;5004337;28;20072;-81
2021/01/30 11:02:44;;;;;;;198.45;184.18;;;;;;;;;;5008874;28;20101;-80
2021/01/30 11:05:19;;;;;;;184.20;170.43;;;;;;;;;;5039810;28;20040;-81
2021/01/30 11:07:48;;;;;;;189.33;175.27;;;;;;;;;;5040987;28;20033;-79
2021/01/30 11:10:23;;;;;;;195.77;181.75;;;;;;;;;;5025145;28;20033;-79
2021/01/30 11:12:48;;;;;;;197.93;183.48;;;;;;;;;;5017586;28;20045;-80
2021/01/30 11:15:16;;;;;;;191.57;177.30;;;;;;;;;;5018476;28;20080;-79
2021/01/30 11:17:42;;;;;;;190.55;176.85;;;;;;;;;;5017838;28;20034;-79
2021/01/30 11:20:10;;;;;;;189.93;175.98;;;;;;;;;;5045100;28;20008;-80
2021/01/30 11:22:36;;;;;;;189.65;175.82;;;;;;;;;;5018825;28;20034;-79
2021/01/30 11:25:05;;;;;;;192.10;177.90;;;;;;;;;;5025159;28;20028;-79
2021/01/30 11:27:33;;;;;;;188.23;174.30;;;;;;;;;;5018483;28;20028;-80
2021/01/30 11:30:17;;;;;;;173.10;159.73;;;;;;;;;;5014547;28;20030;-80
2021/01/30 11:32:46;;;;;;;179.95;166.90;;;;;;;;;;5021070;28;20026;-80
2021/01/30 11:35:14;;;;;;;182.10;168.63;;;;;;;;;;5019496;28;20030;-80
2021/01/30 11:37:40;;;;;;;178.57;164.98;;;;;;;;;;5019579;28;20097;-81
2021/01/30 11:40:07;;;;;;;167.75;155.40;;;;;;;;;;5020035;28;20026;-80
2021/01/30 11:42:32;;;;;;;177.50;164.77;;;;;;;;;;5012789;28;20042;-80
2021/01/30 11:44:57;;;;;;;168.95;156.95;;;;;;;;;;5018524;28;20030;-81
2021/01/30 11:47:23;;;;;;;161.45;149.88;;;;;;;;;;5018506;28;20069;-80
2021/01/30 11:49:48;;;;;;;161.48;149.85;;;;;;;;;;5021920;28;20034;-80
2021/01/30 11:52:17;;;;;;;155.45;144.18;;;;;;;;;;5019073;28;20069;-80
2021/01/30 11:54:43;;;;;;;141.35;131.30;;;;;;;;;;5013033;28;20033;-80
2021/01/30 11:57:09;;;;;;;144.63;134.48;;;;;;;;;;5014783;28;20445;-80
2021/01/30 11:59:34;;;;;;;130.63;121.70;;;;;;;;;;5004759;28;20477;-80
2021/01/30 12:02:00;;;;;;;125.78;117.15;;;;;;;;;;5002777;28;20471;-78
2021/01/30 12:04:25;;;;;;;123.32;114.07;;;;;;;;;;5009005;28;20109;-79
2021/01/30 12:06:50;;;;;;;130.60;121.07;;;;;;;;;;5010668;28;20033;-79
2021/01/30 12:09:16;;;;;;;131.18;121.57;;;;;;;;;;5003468;28;20029;-79
2021/01/30 12:11:42;;;;;;;143.55;132.43;;;;;;;;;;5002731;28;20088;-70
2021/01/30 12:14:07;;;;;;;103.18;95.40;;;;;;;;;;5004250;28;20390;-80
2021/01/30 12:16:33;;;;;;;104.47;97.38;;;;;;;;;;4997245;28;20026;-80
2021/01/30 12:18:58;;;;;;;106.15;98.63;;;;;;;;;;5004004;28;20116;-79
2021/01/30 12:21:25;;;;;;;111.63;103.88;;;;;;;;;;5001486;28;20030;-80
2021/01/30 12:23:50;;;;;;;103.22;96.28;;;;;;;;;;5009160;28;20137;-80
2021/01/30 12:26:18;;;;;;;103.47;96.43;;;;;;;;;;5001563;28;20145;-80
2021/01/30 12:28:44;;;;;;;113.40;105.68;;;;;;;;;;4997867;28;20490;-81
2021/01/30 12:31:09;;;;;;;106.93;99.03;;;;;;;;;;4996481;28;20074;-80
2021/01/30 12:33:35;;;;;;;105.85;98.72;;;;;;;;;;4995811;28;20034;-81
2021/01/30 12:36:00;;;;;;;97.43;90.25;;;;;;;;;;5004289;28;20030;-75
2021/01/30 12:38:32;;;;;;;95.63;88.28;;;;;;;;;;5006829;28;20478;-72
2021/01/30 12:40:58;;;;;;;85.22;78.90;;;;;;;;;;5009680;28;20037;-78
2021/01/30 12:43:23;;;;;;;87.18;81.10;;;;;;;;;;4999773;28;20010;-80
2021/01/30 12:45:49;;;;;;;100.43;93.60;;;;;;;;;;4999264;28;20033;-81
2021/01/30 12:48:15;;;;;;;94.57;88.18;;;;;;;;;;5004012;28;20030;-78
2021/01/30 12:50:41;;;;;;;98.68;91.85;;;;;;;;;;4998950;28;20038;-78
2021/01/30 12:53:07;;;;;;;105.32;97.43;;;;;;;;;;4996057;28;20021;-80
2021/01/30 12:55:33;;;;;;;116.43;108.28;;;;;;;;;;5006507;28;20038;-79
2021/01/30 12:57:58;;;;;;;113.72;105.60;;;;;;;;;;4997046;28;20030;-79
2021/01/30 13:00:27;;;;;;;96.18;89.63;;;;;;;;;;5008884;28;20058;-79
2021/01/30 13:02:52;;;;;;;108.40;100.38;;;;;;;;;;4998563;28;20057;-78
2021/01/30 13:05:19;;;;;;;101.80;94.53;;;;;;;;;;4999159;28;20029;-79
2021/01/30 13:07:44;;;;;;;105.75;98.05;;;;;;;;;;5007796;28;20032;-79
2021/01/30 13:10:12;;;;;;;105.82;98.53;;;;;;;;;;5006076;28;20033;-79
2021/01/30 13:12:38;;;;;;;102.80;95.60;;;;;;;;;;5007996;28;20064;-80
2021/01/30 13:15:04;;;;;;;86.00;79.70;;;;;;;;;;5020056;28;20432;-79
2021/01/30 13:17:29;;;;;;;85.57;79.00;;;;;;;;;;5001614;28;20030;-78
2021/01/30 13:19:55;;;;;;;92.30;86.03;;;;;;;;;;5005941;28;20124;-79
2021/01/30 13:22:21;;;;;;;92.40;85.72;;;;;;;;;;5001988;28;20078;-81
2021/01/30 13:24:47;;;;;;;97.80;91.25;;;;;;;;;;5000724;28;20497;-79
2021/01/30 13:27:12;;;;;;;105.63;98.38;;;;;;;;;;5001947;28;20018;-79
2021/01/30 13:29:38;;;;;;;101.78;94.88;;;;;;;;;;5002640;28;20560;-78
2021/01/30 13:32:03;;;;;;;100.50;93.63;;;;;;;;;;5022360;28;20096;-78
2021/01/30 13:34:29;;;;;;;109.05;101.55;;;;;;;;;;5000969;28;20066;-80
2021/01/30 13:36:55;;;;;;;112.43;104.80;;;;;;;;;;5006419;28;20033;-77
2021/01/30 13:39:21;;;;;;;93.50;87.18;;;;;;;;;;5006117;28;20490;-80
2021/01/30 13:41:46;;;;;;;75.40;70.25;;;;;;;;;;5005572;28;20037;-79
2021/01/30 13:44:12;;;;;;;69.90;65.10;;;;;;;;;;5014193;28;20026;-79
2021/01/30 13:46:37;;;;;;;65.85;61.33;;;;;;;;;;5010159;28;20021;-80
2021/01/30 13:49:03;;;;;;;82.20;76.20;;;;;;;;;;5005426;28;20021;-80
2021/01/30 13:51:29;;;;;;;61.75;57.65;;;;;;;;;;5005856;28;20045;-79
2021/01/30 13:53:54;;;;;;;70.82;64.60;;;;;;;;;;5007403;28;20023;-81
2021/01/30 13:56:19;;;;;;;61.55;57.47;;;;;;;;;;5014384;28;20040;-78
2021/01/30 13:58:45;;;;;;;73.55;68.75;;;;;;;;;;4999612;28;20461;-78
2021/01/30 14:01:10;;;;;;;61.38;56.53;;;;;;;;;;5005927;28;20029;-79
2021/01/30 14:03:36;;;;;;;58.53;54.63;;;;;;;;;;4998485;28;20108;-78
2021/01/30 14:06:01;;;;;;;64.07;59.42;;;;;;;;;;5003695;28;20101;-80
2021/01/30 14:08:26;;;;;;;61.95;57.40;;;;;;;;;;5010313;28;20128;-79